Time;durP1;ratioP1;P1;durP2;ratioP2;P2;SDS_P1;SDS_P2;PMS_P1;PMS_P2;Temp;Humidity;BMP_temperature;BMP_pressure;BME280_temperature;BME280_humidity;BME280_pressure;Samples;Min_cycle;Max_cycle;Signal;HPM_P1;HPM_P2
2023/01/16 19:02:46;;;;;;;2.65;1.10;;;;;;;;;;7372249;19;20028;-81
2023/01/16 19:05:12;;;;;;;3.13;1.40;;;;;;;;;;7362779;19;20021;-79
2023/01/16 19:07:43;;;;;;;3.70;1.60;;;;;;;;;;7367447;19;20730;-82
2023/01/16 19:10:11;;;;;;;3.70;1.70;;;;;;;;;;7361929;19;20066;-79
2023/01/16 19:12:37;;;;;;;3.90;1.55;;;;;;;;;;7368413;19;21049;-84
2023/01/16 19:15:03;;;;;;;4.22;1.90;;;;;;;;;;7370009;19;20015;-85
2023/01/16 19:17:28;;;;;;;4.05;2.10;;;;;;;;;;7374325;19;20036;-83
2023/01/16 19:19:54;;;;;;;4.88;2.35;;;;;;;;;;7362598;19;20053;-80
2023/01/16 19:22:19;;;;;;;5.00;2.42;;;;;;;;;;7369314;19;19999;-82
2023/01/16 19:24:45;;;;;;;5.38;2.67;;;;;;;;;;7365709;19;20435;-85
2023/01/16 19:27:10;;;;;;;4.78;2.30;;;;;;;;;;7362814;19;20468;-83
2023/01/16 19:29:35;;;;;;;4.72;2.10;;;;;;;;;;7370935;19;20006;-80
2023/01/16 19:32:04;;;;;;;6.20;2.50;;;;;;;;;;7371921;19;20019;-82
2023/01/16 19:34:31;;;;;;;4.93;2.22;;;;;;;;;;7363824;19;20047;-81
2023/01/16 19:36:56;;;;;;;5.35;2.55;;;;;;;;;;7369558;19;20078;-83
2023/01/16 19:39:21;;;;;;;5.90;3.30;;;;;;;;;;7358647;19;20010;-83
2023/01/16 19:47:15;;;;;;;;;;;;;;;;;;7363615;19;20526;-80
2023/01/16 19:49:40;;;;;;;7.90;4.43;;;;;;;;;;7363484;19;20483;-79
2023/01/16 19:52:09;;;;;;;6.93;4.15;;;;;;;;;;7357707;19;20264;-83
2023/01/16 19:54:34;;;;;;;5.60;2.28;;;;;;;;;;7365880;19;20057;-82
2023/01/16 19:57:00;;;;;;;4.53;2.00;;;;;;;;;;7373177;19;20062;-80
2023/01/16 19:59:25;;;;;;;3.63;1.55;;;;;;;;;;7364238;19;20018;-84
2023/01/16 20:01:53;;;;;;;3.63;1.48;;;;;;;;;;7372775;19;20421;-80
2023/01/16 20:04:19;;;;;;;3.72;1.75;;;;;;;;;;7363661;19;20029;-79
2023/01/16 20:06:44;;;;;;;3.13;1.42;;;;;;;;;;7368912;19;20297;-80
2023/01/16 20:09:09;;;;;;;2.75;1.33;;;;;;;;;;7358788;19;20379;-80
2023/01/16 20:14:18;;;;;;;4.47;1.60;;;;;;;;;;7370578;19;20096;-82
2023/01/16 20:16:44;;;;;;;3.30;1.50;;;;;;;;;;7369282;19;20074;-80
2023/01/16 20:19:09;;;;;;;3.60;1.50;;;;;;;;;;7365303;19;20021;-80
2023/01/16 20:21:37;;;;;;;3.83;1.63;;;;;;;;;;7372137;19;20389;-81
2023/01/16 20:24:03;;;;;;;5.72;2.53;;;;;;;;;;7357677;19;20010;-80
2023/01/16 20:26:28;;;;;;;4.60;2.30;;;;;;;;;;7358092;19;20020;-81
2023/01/16 20:28:53;;;;;;;6.28;2.92;;;;;;;;;;7352887;19;20037;-78
2023/01/16 20:31:19;;;;;;;7.60;3.90;;;;;;;;;;7360834;19;20002;-81
2023/01/16 20:33:44;;;;;;;6.53;4.10;;;;;;;;;;7363152;19;20041;-79
2023/01/16 20:36:10;;;;;;;7.53;4.55;;;;;;;;;;7355386;19;20021;-81
2023/01/16 20:38:37;;;;;;;8.07;4.82;;;;;;;;;;7358051;19;20006;-84
2023/01/16 20:41:10;;;;;;;11.48;6.85;;;;;;;;;;7355567;19;20510;-83
2023/01/16 20:46:20;;;;;;;15.45;8.63;;;;;;;;;;7345770;19;20737;-79
2023/01/16 20:48:45;;;;;;;15.98;8.68;;;;;;;;;;7363538;19;20007;-81
2023/01/16 20:51:12;;;;;;;14.32;8.95;;;;;;;;;;7359376;19;20033;-82
2023/01/16 20:53:37;;;;;;;20.85;9.30;;;;;;;;;;7354301;19;20601;-82
2023/01/16 20:56:04;;;;;;;21.38;11.07;;;;;;;;;;7347510;19;20002;-85
2023/01/16 20:58:29;;;;;;;17.05;10.50;;;;;;;;;;7349285;19;20458;-78
2023/01/16 21:01:00;;;;;;;16.20;8.90;;;;;;;;;;7344353;19;20119;-82
2023/01/16 21:03:26;;;;;;;16.73;9.57;;;;;;;;;;7352924;19;20866;-82
2023/01/16 21:05:51;;;;;;;14.80;8.88;;;;;;;;;;7352945;19;20010;-82
2023/01/16 21:08:17;;;;;;;22.15;8.95;;;;;;;;;;7357142;19;20005;-79
2023/01/16 21:10:43;;;;;;;15.45;9.40;;;;;;;;;;7346161;19;20493;-79
2023/01/16 21:21:46;;;;;;;17.73;9.40;;;;;;;;;;7343245;19;20662;-79
2023/01/16 21:24:07;;;;;;;;;;;;;;;;;;7337093;19;20019;-82
2023/01/16 21:26:32;;;;;;;23.55;13.02;;;;;;;;;;7352779;19;20009;-80
2023/01/16 21:28:57;;;;;;;26.08;11.98;;;;;;;;;;7352590;19;20014;-79
2023/01/16 21:31:22;;;;;;;18.08;9.45;;;;;;;;;;7355271;19;20015;-83
2023/01/16 21:33:50;;;;;;;24.10;10.32;;;;;;;;;;7357100;19;20899;-79
2023/01/16 21:36:15;;;;;;;21.77;8.45;;;;;;;;;;7351437;19;20251;-80
2023/01/16 21:38:40;;;;;;;20.30;9.07;;;;;;;;;;7344255;19;20030;-82
2023/01/16 21:41:12;;;;;;;23.50;9.85;;;;;;;;;;7342818;19;19999;-82
2023/01/16 21:46:28;;;;;;;20.95;9.43;;;;;;;;;;7345700;19;20620;-79
2023/01/16 21:48:53;;;;;;;16.33;7.88;;;;;;;;;;7329837;19;20015;-79
2023/01/16 21:51:18;;;;;;;22.75;8.82;;;;;;;;;;7345999;19;20011;-79
2023/01/16 21:53:43;;;;;;;16.73;8.60;;;;;;;;;;7349814;19;19999;-81
2023/01/16 21:56:08;;;;;;;20.48;9.43;;;;;;;;;;7360250;19;20018;-84
2023/01/16 21:58:34;;;;;;;16.80;8.82;;;;;;;;;;7356713;19;19999;-81
2023/01/16 22:01:02;;;;;;;16.95;8.98;;;;;;;;;;7362509;19;20082;-79
2023/01/16 22:03:27;;;;;;;23.55;9.15;;;;;;;;;;7356398;19;20006;-81
2023/01/16 22:05:54;;;;;;;18.80;8.80;;;;;;;;;;7363853;19;20011;-82
2023/01/16 22:08:19;;;;;;;20.67;9.10;;;;;;;;;;7343382;19;20357;-81
2023/01/16 22:17:42;;;;;;;18.30;8.25;;;;;;;;;;7333401;19;20116;-83
2023/01/16 22:18:59;;;;;;;15.70;7.33;;;;;;;;;;7361168;19;19964;-81
2023/01/16 22:21:24;;;;;;;15.30;6.95;;;;;;;;;;7357832;19;20033;-86
2023/01/16 22:23:54;;;;;;;13.98;8.02;;;;;;;;;;7357713;19;20006;-83
2023/01/16 22:26:20;;;;;;;15.70;7.55;;;;;;;;;;7358308;19;19995;-82
2023/01/16 22:28:45;;;;;;;17.73;7.60;;;;;;;;;;7359469;19;20401;-83
2023/01/16 22:31:12;;;;;;;19.13;8.35;;;;;;;;;;7361196;19;20002;-83
2023/01/16 22:33:37;;;;;;;20.15;8.80;;;;;;;;;;7362382;19;20019;-81
2023/01/16 22:36:05;;;;;;;14.00;7.45;;;;;;;;;;7369057;19;20352;-83
2023/01/16 22:38:36;;;;;;;16.52;7.85;;;;;;;;;;7362127;19;20006;-80
2023/01/16 22:41:01;;;;;;;14.93;7.45;;;;;;;;;;7363573;19;20010;-81
2023/01/16 22:46:23;;;;;;;19.85;7.20;;;;;;;;;;7361163;19;20017;-82
2023/01/16 22:48:49;;;;;;;14.82;7.40;;;;;;;;;;7369376;19;20011;-80
2023/01/16 22:51:15;;;;;;;13.20;7.18;;;;;;;;;;7364826;19;20010;-81
2023/01/16 22:53:40;;;;;;;16.85;8.18;;;;;;;;;;7366015;19;20496;-82
2023/01/16 22:56:08;;;;;;;15.00;7.00;;;;;;;;;;7366972;19;20105;-79
2023/01/16 22:58:34;;;;;;;17.75;7.72;;;;;;;;;;7362594;19;20014;-80
2023/01/16 23:01:16;;;;;;;14.27;6.43;;;;;;;;;;7327992;19;20448;-78
2023/01/16 23:03:41;;;;;;;16.13;6.90;;;;;;;;;;7348760;19;20021;-75
2023/01/16 23:06:07;;;;;;;13.02;7.10;;;;;;;;;;7368254;19;20442;-75
2023/01/16 23:08:33;;;;;;;14.55;6.75;;;;;;;;;;7370032;19;20022;-76
2023/01/16 23:11:07;;;;;;;13.45;6.82;;;;;;;;;;7367108;19;20042;-75
2023/01/16 23:13:32;;;;;;;11.30;6.55;;;;;;;;;;7370531;19;20256;-75
2023/01/16 23:15:57;;;;;;;15.13;7.28;;;;;;;;;;7375394;19;20395;-76
2023/01/16 23:18:23;;;;;;;11.45;7.20;;;;;;;;;;7370669;19;20074;-77
2023/01/16 23:20:48;;;;;;;16.65;7.88;;;;;;;;;;7371202;19;20120;-78
2023/01/16 23:23:13;;;;;;;15.63;7.93;;;;;;;;;;7373987;19;20002;-76
2023/01/16 23:25:38;;;;;;;16.45;6.85;;;;;;;;;;7370976;19;20271;-74
2023/01/16 23:28:04;;;;;;;13.40;7.32;;;;;;;;;;7372999;19;20014;-78
2023/01/16 23:30:29;;;;;;;13.10;7.70;;;;;;;;;;7373219;19;20317;-75
2023/01/16 23:32:56;;;;;;;14.68;8.82;;;;;;;;;;7368806;19;20450;-76
2023/01/16 23:35:21;;;;;;;16.42;8.85;;;;;;;;;;7369787;19;20096;-75
2023/01/16 23:37:46;;;;;;;14.23;8.35;;;;;;;;;;7370469;19;20474;-76
2023/01/16 23:40:12;;;;;;;19.17;9.73;;;;;;;;;;7365492;19;20011;-76
2023/01/16 23:45:21;;;;;;;15.82;9.50;;;;;;;;;;7372508;19;20387;-74
2023/01/16 23:47:46;;;;;;;18.37;9.30;;;;;;;;;;7374885;19;20003;-74
2023/01/16 23:50:12;;;;;;;14.77;9.35;;;;;;;;;;7375044;19;20363;-76
2023/01/16 23:52:38;;;;;;;14.05;9.50;;;;;;;;;;7377121;19;20010;-75
2023/01/16 23:55:04;;;;;;;17.05;8.88;;;;;;;;;;7371048;19;20018;-76
2023/01/16 23:57:29;;;;;;;15.43;8.70;;;;;;;;;;7373584;19;20018;-75
2023/01/16 23:59:54;;;;;;;20.02;9.00;;;;;;;;;;7375316;19;20034;-74
